createdAt,value
2022-12-06T00:00:29.154Z,3.60
2022-12-06T00:01:34.431Z,3.40
2022-12-06T00:02:36.721Z,3.30
2022-12-06T00:03:40.641Z,3.43
2022-12-06T00:04:45.235Z,3.47
2022-12-06T00:05:47.488Z,3.83
2022-12-06T00:06:54.186Z,3.57
2022-12-06T00:07:56.467Z,5.00
2022-12-06T00:09:01.224Z,3.57
2022-12-06T00:10:04.020Z,3.53
2022-12-06T00:11:12.864Z,3.50
2022-12-06T00:12:15.096Z,3.77
2022-12-06T00:13:17.376Z,3.80
2022-12-06T00:14:20.210Z,3.27
2022-12-06T00:15:22.466Z,3.33
2022-12-06T00:16:25.481Z,3.47
2022-12-06T00:17:28.964Z,3.37
2022-12-06T00:18:33.557Z,3.33
2022-12-06T00:19:35.813Z,3.67
2022-12-06T00:20:39.329Z,3.57
2022-12-06T00:21:42.599Z,3.20
2022-12-06T00:22:45.590Z,3.80
2022-12-06T00:23:56.239Z,3.57
2022-12-06T00:24:58.563Z,3.57
2022-12-06T00:26:01.458Z,4.17
2022-12-06T00:27:03.835Z,3.83
2022-12-06T00:28:06.131Z,3.27
2022-12-06T00:29:12.872Z,3.97
2022-12-06T00:30:15.254Z,3.40
2022-12-06T00:31:19.456Z,3.93
2022-12-06T00:32:21.839Z,3.77
2022-12-06T00:33:24.084Z,3.50
2022-12-06T00:34:27.310Z,3.30
2022-12-06T00:35:29.511Z,3.53
2022-12-06T00:36:35.348Z,3.53
2022-12-06T00:37:37.641Z,3.40
2022-12-06T00:38:39.908Z,3.13
2022-12-06T00:39:42.416Z,3.83
2022-12-06T00:40:44.655Z,3.83
2022-12-06T00:41:46.881Z,3.47
2022-12-06T00:42:49.186Z,3.40
2022-12-06T00:43:52.579Z,3.40
2022-12-06T00:44:56.641Z,4.67
2022-12-06T00:45:59.497Z,3.50
2022-12-06T00:47:01.738Z,4.00
2022-12-06T00:48:04.285Z,3.70
2022-12-06T00:49:08.051Z,3.67
2022-12-06T00:50:10.848Z,3.80
2022-12-06T00:51:14.428Z,3.40
2022-12-06T00:52:16.695Z,3.50
2022-12-06T00:53:21.931Z,3.23
2022-12-06T00:54:24.219Z,4.97
2022-12-06T00:55:26.469Z,3.80
2022-12-06T00:56:31.305Z,3.63
2022-12-06T00:57:35.864Z,3.70
2022-12-06T00:58:39.224Z,3.70
2022-12-06T00:59:41.534Z,3.43
2022-12-06T01:00:44.118Z,3.47
2022-12-06T01:01:46.462Z,3.80
2022-12-06T01:02:48.867Z,3.87
2022-12-06T01:03:53.714Z,3.47
2022-12-06T01:04:56.346Z,3.57
2022-12-06T01:05:58.685Z,4.07
2022-12-06T01:07:01.047Z,3.97
2022-12-06T01:08:03.399Z,3.50
2022-12-06T01:09:08.361Z,3.17
2022-12-06T01:10:11.012Z,3.80
2022-12-06T01:11:16.531Z,3.63
2022-12-06T01:12:18.724Z,3.93
2022-12-06T01:13:23.505Z,3.50
2022-12-06T01:14:25.772Z,3.80
2022-12-06T01:15:27.984Z,3.33
2022-12-06T01:16:31.712Z,3.50
2022-12-06T01:17:35.363Z,3.67
2022-12-06T01:18:39.771Z,4.10
2022-12-06T01:19:42.616Z,3.80
2022-12-06T01:20:44.827Z,3.40
2022-12-06T01:21:48.881Z,3.27
2022-12-06T01:22:51.184Z,3.57
2022-12-06T01:23:56.313Z,4.00
2022-12-06T01:24:58.838Z,5.17
2022-12-06T01:26:01.122Z,4.60
2022-12-06T01:27:05.635Z,3.70
2022-12-06T01:28:07.848Z,3.83
2022-12-06T01:29:10.261Z,4.50
2022-12-06T01:30:12.868Z,3.70
2022-12-06T01:31:16.195Z,3.60
2022-12-06T01:32:18.494Z,3.60
2022-12-06T01:33:20.695Z,3.40
2022-12-06T01:34:22.908Z,4.30
2022-12-06T01:35:25.135Z,4.00
2022-12-06T01:36:27.808Z,3.93
2022-12-06T01:37:30.217Z,3.47
2022-12-06T01:38:32.770Z,3.50
2022-12-06T01:39:34.949Z,3.37
2022-12-06T01:40:41.930Z,4.30
2022-12-06T01:41:44.270Z,3.40
2022-12-06T01:42:46.492Z,3.67
2022-12-06T01:43:48.744Z,3.50
2022-12-06T01:44:56.280Z,4.10
2022-12-06T01:46:02.909Z,4.17
2022-12-06T01:47:08.499Z,3.40
2022-12-06T01:48:10.712Z,3.50
2022-12-06T01:49:12.836Z,4.50
2022-12-06T01:50:22.665Z,4.00
2022-12-06T01:51:25.023Z,3.53
2022-12-06T01:52:34.325Z,3.40
2022-12-06T01:53:37.535Z,3.87
2022-12-06T01:54:40.533Z,3.40
2022-12-06T01:55:42.834Z,3.37
2022-12-06T01:56:46.523Z,3.30
2022-12-06T01:57:53.122Z,3.20
2022-12-06T01:58:58.717Z,3.43
2022-12-06T02:00:02.118Z,3.77
2022-12-06T02:01:27.500Z,3.60
2022-12-06T02:02:29.865Z,3.93
2022-12-06T02:03:33.708Z,3.50
2022-12-06T02:04:36.442Z,3.40
2022-12-06T02:05:40.893Z,3.40
2022-12-06T02:06:44.456Z,3.93
2022-12-06T02:07:47.307Z,3.53
2022-12-06T02:08:51.952Z,3.43
2022-12-06T02:09:55.071Z,3.53
2022-12-06T02:11:01.462Z,4.90
2022-12-06T02:12:03.984Z,4.13
2022-12-06T02:13:07.148Z,3.90
2022-12-06T02:14:13.464Z,3.90
2022-12-06T02:15:15.787Z,3.70
2022-12-06T02:16:38.942Z,3.97
2022-12-06T02:17:54.632Z,3.47
2022-12-06T02:19:25.176Z,3.70
2022-12-06T02:20:41.676Z,4.60
2022-12-06T02:21:49.588Z,3.83
2022-12-06T02:23:09.906Z,3.80
2022-12-06T02:24:40.062Z,4.10
2022-12-06T02:26:03.683Z,4.97
2022-12-06T02:27:27.580Z,4.27
2022-12-06T02:28:47.965Z,5.60
2022-12-06T02:30:26.277Z,5.40
2022-12-06T02:31:40.776Z,4.43
2022-12-06T02:33:04.936Z,5.07
2022-12-06T02:34:15.762Z,5.17
2022-12-06T02:35:55.571Z,4.70
2022-12-06T02:37:22.502Z,5.83
2022-12-06T02:38:30.701Z,5.20
2022-12-06T02:39:45.434Z,4.80
2022-12-06T02:40:55.645Z,5.10
2022-12-06T02:42:11.609Z,4.90
2022-12-06T02:43:23.531Z,5.60
2022-12-06T02:44:42.222Z,4.93
2022-12-06T02:45:57.065Z,6.10
2022-12-06T02:47:02.493Z,5.27
2022-12-06T02:48:07.320Z,5.40
2022-12-06T02:49:12.429Z,5.80
2022-12-06T02:50:20.874Z,5.83
2022-12-06T02:51:25.281Z,5.30
2022-12-06T02:52:29.618Z,5.30
2022-12-06T02:53:36.056Z,4.87
2022-12-06T02:54:39.817Z,5.17
2022-12-06T02:55:43.877Z,4.90
2022-12-06T02:56:46.079Z,5.23
2022-12-06T02:57:51.186Z,7.30
2022-12-06T02:58:53.829Z,5.03
2022-12-06T02:59:56.070Z,5.97
2022-12-06T03:01:01.363Z,4.90
2022-12-06T03:02:10.983Z,5.80
2022-12-06T03:03:16.523Z,6.17
2022-12-06T03:04:18.759Z,5.37
2022-12-06T03:05:32.016Z,5.57
2022-12-06T03:06:37.235Z,6.40
2022-12-06T03:07:42.897Z,5.97
2022-12-06T03:08:51.855Z,4.83
2022-12-06T03:09:56.855Z,5.00
2022-12-06T03:11:02.642Z,5.53
2022-12-06T03:12:39.040Z,5.70
2022-12-06T03:14:14.473Z,5.30
2022-12-06T03:15:44.710Z,6.77
2022-12-06T03:16:54.101Z,5.13
2022-12-06T03:18:08.146Z,4.73
2022-12-06T03:19:20.485Z,5.40
2022-12-06T03:20:32.315Z,5.97
2022-12-06T03:21:45.136Z,4.57
2022-12-06T03:22:52.989Z,5.33
2022-12-06T03:23:55.465Z,6.73
2022-12-06T03:24:58.837Z,5.60
2022-12-06T03:26:03.013Z,5.47
2022-12-06T03:27:10.352Z,5.20
2022-12-06T03:28:15.975Z,5.77
2022-12-06T03:29:22.025Z,4.80
2022-12-06T03:30:24.307Z,5.23
2022-12-06T03:31:30.759Z,6.10
2022-12-06T03:32:35.508Z,4.90
2022-12-06T03:33:42.402Z,5.07
2022-12-06T03:34:49.816Z,5.47
2022-12-06T03:35:55.276Z,5.07
2022-12-06T03:36:59.124Z,5.50
2022-12-06T03:38:08.904Z,5.30
2022-12-06T03:39:14.657Z,6.53
2022-12-06T03:40:22.071Z,5.20
2022-12-06T03:41:28.697Z,4.97
2022-12-06T03:42:32.157Z,5.83
2022-12-06T03:43:34.829Z,6.03
2022-12-06T03:44:37.461Z,4.73
2022-12-06T03:45:54.034Z,5.33
2022-12-06T03:47:08.332Z,5.03
2022-12-06T03:48:20.002Z,5.23
2022-12-06T03:49:32.370Z,5.47
2022-12-06T03:50:43.885Z,5.37
2022-12-06T03:51:46.825Z,5.83
2022-12-06T03:52:51.772Z,7.17
2022-12-06T03:53:57.688Z,5.13
2022-12-06T03:54:59.985Z,5.47
2022-12-06T03:56:02.230Z,5.00
2022-12-06T03:57:04.477Z,6.47
2022-12-06T03:58:06.736Z,5.73
2022-12-06T03:59:10.794Z,7.17
2022-12-06T04:00:13.960Z,6.17
2022-12-06T04:01:16.976Z,6.80
2022-12-06T04:02:19.287Z,5.67
2022-12-06T04:03:21.589Z,5.57
2022-12-06T04:04:25.175Z,5.93
2022-12-06T04:05:27.367Z,5.40
2022-12-06T04:06:29.667Z,6.00
2022-12-06T04:07:32.110Z,5.53
2022-12-06T04:08:34.805Z,5.40
2022-12-06T04:09:55.357Z,5.67
2022-12-06T04:10:57.749Z,5.17
2022-12-06T04:11:59.954Z,5.10
2022-12-06T04:13:02.255Z,6.20
2022-12-06T04:14:04.511Z,5.17
2022-12-06T04:15:08.220Z,5.73
2022-12-06T04:16:29.736Z,6.70
2022-12-06T04:17:50.387Z,6.03
2022-12-06T04:18:53.844Z,5.70
2022-12-06T04:19:56.065Z,5.57
2022-12-06T04:21:18.846Z,4.93
2022-12-06T04:22:39.575Z,6.10
2022-12-06T04:23:44.130Z,5.50
2022-12-06T04:24:46.418Z,5.07
2022-12-06T04:25:48.714Z,5.43
2022-12-06T04:26:50.890Z,5.93
2022-12-06T04:28:11.710Z,5.40
2022-12-06T04:29:32.487Z,5.93
2022-12-06T04:30:53.367Z,5.50
2022-12-06T04:32:14.052Z,4.77
2022-12-06T04:33:34.888Z,5.40
2022-12-06T04:34:55.405Z,5.17
2022-12-06T04:36:16.491Z,5.27
2022-12-06T04:37:37.208Z,5.03
2022-12-06T04:38:45.263Z,4.97
2022-12-06T04:39:47.705Z,5.13
2022-12-06T04:40:49.981Z,5.23
2022-12-06T04:42:10.735Z,5.17
2022-12-06T04:43:31.631Z,4.73
2022-12-06T04:44:33.999Z,4.87
2022-12-06T04:45:36.228Z,5.03
2022-12-06T04:46:38.851Z,5.20
2022-12-06T04:47:41.401Z,4.70
2022-12-06T04:48:43.752Z,4.83
2022-12-06T04:49:46.194Z,5.23
2022-12-06T04:50:51.568Z,5.20
2022-12-06T04:51:55.109Z,4.83
2022-12-06T04:52:57.312Z,5.37
2022-12-06T04:53:59.914Z,5.00
2022-12-06T04:55:02.099Z,5.30
2022-12-06T04:56:04.454Z,4.63
2022-12-06T04:57:11.584Z,5.47
2022-12-06T04:58:14.418Z,4.83
2022-12-06T04:59:17.891Z,5.13
2022-12-06T05:00:20.436Z,5.00
2022-12-06T05:01:22.793Z,4.70
2022-12-06T05:02:25.209Z,5.10
2022-12-06T05:03:27.469Z,4.50
2022-12-06T05:04:29.741Z,4.93
2022-12-06T05:05:31.926Z,4.77
2022-12-06T05:06:34.168Z,5.83
2022-12-06T05:07:36.442Z,5.13
2022-12-06T05:08:38.900Z,5.37
2022-12-06T05:09:41.394Z,5.70
2022-12-06T05:10:48.023Z,5.97
2022-12-06T05:11:50.315Z,5.53
2022-12-06T05:12:52.693Z,5.67
2022-12-06T05:13:54.994Z,4.60
2022-12-06T05:14:57.234Z,5.20
2022-12-06T05:16:06.109Z,6.13
2022-12-06T05:17:08.340Z,5.30
2022-12-06T05:18:10.633Z,5.73
2022-12-06T05:19:13.968Z,5.63
2022-12-06T05:20:16.288Z,6.00
2022-12-06T05:21:21.237Z,5.03
2022-12-06T05:22:24.211Z,5.07
2022-12-06T05:23:26.746Z,7.83
2022-12-06T05:24:31.223Z,5.30
2022-12-06T05:25:33.447Z,4.67
2022-12-06T05:26:35.849Z,4.90
2022-12-06T05:27:38.319Z,4.97
2022-12-06T05:28:40.910Z,5.47
2022-12-06T05:29:43.169Z,6.67
2022-12-06T05:30:45.416Z,5.57
2022-12-06T05:31:47.785Z,5.10
2022-12-06T05:32:55.412Z,4.90
2022-12-06T05:33:59.126Z,5.30
2022-12-06T05:35:01.403Z,5.10
2022-12-06T05:36:15.985Z,5.70
2022-12-06T05:37:18.292Z,6.40
2022-12-06T05:38:21.746Z,5.73
2022-12-06T05:39:26.998Z,6.03
2022-12-06T05:40:29.239Z,6.83
2022-12-06T05:41:31.614Z,5.70
2022-12-06T05:42:33.937Z,5.97
2022-12-06T05:43:36.253Z,7.17
2022-12-06T05:44:38.449Z,6.17
2022-12-06T05:45:40.961Z,5.87
2022-12-06T05:46:43.200Z,6.17
2022-12-06T05:47:45.427Z,6.17
2022-12-06T05:48:47.721Z,6.87
2022-12-06T05:49:51.273Z,6.33
2022-12-06T05:50:53.932Z,5.97
2022-12-06T05:51:58.833Z,6.00
2022-12-06T05:53:04.893Z,6.20
2022-12-06T05:54:07.097Z,6.30
2022-12-06T05:55:09.388Z,6.03
2022-12-06T05:56:12.755Z,6.83
2022-12-06T05:57:15.113Z,5.80
2022-12-06T05:58:18.282Z,6.30
2022-12-06T05:59:20.465Z,5.70
2022-12-06T06:00:22.806Z,6.00
2022-12-06T06:01:25.057Z,7.20
2022-12-06T06:02:30.051Z,5.90
2022-12-06T06:03:32.876Z,5.30
2022-12-06T06:04:35.303Z,7.43
2022-12-06T06:05:37.552Z,6.97
2022-12-06T06:06:39.864Z,6.77
2022-12-06T06:07:42.113Z,7.80
2022-12-06T06:08:44.368Z,5.97
2022-12-06T06:09:48.180Z,5.80
2022-12-06T06:10:50.412Z,6.67
2022-12-06T06:11:53.004Z,6.00
2022-12-06T06:12:55.227Z,6.43
2022-12-06T06:13:57.460Z,6.47
2022-12-06T06:14:59.686Z,5.90
2022-12-06T06:16:01.863Z,6.73
2022-12-06T06:17:04.134Z,7.23
2022-12-06T06:18:06.535Z,5.97
2022-12-06T06:19:08.750Z,6.03
2022-12-06T06:20:14.291Z,7.07
2022-12-06T06:21:16.494Z,7.13
2022-12-06T06:22:23.220Z,6.10
2022-12-06T06:23:27.130Z,7.10
2022-12-06T06:24:43.576Z,6.13
2022-12-06T06:25:46.361Z,6.23
2022-12-06T06:26:48.553Z,6.03
2022-12-06T06:27:50.766Z,6.63
2022-12-06T06:28:53.056Z,5.73
2022-12-06T06:29:55.318Z,5.93
2022-12-06T06:30:57.499Z,5.77
2022-12-06T06:31:59.815Z,6.33
2022-12-06T06:33:02.101Z,6.03
2022-12-06T06:34:04.303Z,6.00
2022-12-06T06:35:07.426Z,7.40
2022-12-06T06:36:09.952Z,5.93
2022-12-06T06:37:12.161Z,5.97
2022-12-06T06:38:14.392Z,5.87
2022-12-06T06:39:17.148Z,6.27
2022-12-06T06:40:21.763Z,6.83
2022-12-06T06:41:24.239Z,6.13
2022-12-06T06:42:29.034Z,6.53
2022-12-06T06:43:32.202Z,6.70
2022-12-06T06:44:34.493Z,6.17
2022-12-06T06:45:36.757Z,6.63
2022-12-06T06:46:39.064Z,5.80
2022-12-06T06:47:41.369Z,6.13
2022-12-06T06:48:43.583Z,6.27
2022-12-06T06:49:47.060Z,6.30
2022-12-06T06:50:55.395Z,6.70
2022-12-06T06:51:59.368Z,6.27
2022-12-06T06:53:01.618Z,6.30
2022-12-06T06:54:03.959Z,6.03
2022-12-06T06:55:06.523Z,6.10
2022-12-06T06:56:08.924Z,7.50
2022-12-06T06:57:17.119Z,6.73
2022-12-06T06:58:19.946Z,7.10
2022-12-06T06:59:25.234Z,5.83
2022-12-06T07:00:27.556Z,7.40
2022-12-06T07:01:29.917Z,6.77
2022-12-06T07:02:32.205Z,6.20
2022-12-06T07:03:35.396Z,7.50
2022-12-06T07:04:37.635Z,8.50
2022-12-06T07:05:39.868Z,8.50
2022-12-06T07:06:42.095Z,6.40
2022-12-06T07:07:46.765Z,7.23
2022-12-06T07:08:49.011Z,7.20
2022-12-06T07:09:51.359Z,6.23
2022-12-06T07:10:54.447Z,5.90
2022-12-06T07:11:57.954Z,6.70
2022-12-06T07:13:00.188Z,7.20
2022-12-06T07:14:03.582Z,6.40
2022-12-06T07:15:06.762Z,6.33
2022-12-06T07:16:14.828Z,6.77
2022-12-06T07:17:17.070Z,7.03
2022-12-06T07:18:20.650Z,7.30
2022-12-06T07:19:22.978Z,7.73
2022-12-06T07:20:25.152Z,6.37
2022-12-06T07:21:27.387Z,8.30
2022-12-06T07:22:30.744Z,7.43
2022-12-06T07:23:34.473Z,6.73
2022-12-06T07:24:41.631Z,6.53
2022-12-06T07:25:45.566Z,6.30
2022-12-06T07:26:47.835Z,8.27
2022-12-06T07:27:50.047Z,7.23
2022-12-06T07:28:52.280Z,7.60
2022-12-06T07:29:54.439Z,7.27
2022-12-06T07:30:56.793Z,7.07
2022-12-06T07:31:59.332Z,7.20
2022-12-06T07:33:02.285Z,7.30
2022-12-06T07:34:04.557Z,6.70
2022-12-06T07:35:07.115Z,6.50
2022-12-06T07:36:12.998Z,6.60
2022-12-06T07:37:19.109Z,7.27
2022-12-06T07:38:21.465Z,6.90
2022-12-06T07:39:23.700Z,7.63
2022-12-06T07:40:48.166Z,6.83
2022-12-06T07:42:08.020Z,6.77
2022-12-06T07:43:35.431Z,7.03
2022-12-06T07:45:01.280Z,7.83
2022-12-06T07:46:12.809Z,8.10
2022-12-06T07:47:15.285Z,8.43
2022-12-06T07:48:17.481Z,6.83
2022-12-06T07:49:19.743Z,6.73
2022-12-06T07:50:23.760Z,7.67
2022-12-06T07:51:26.624Z,7.53
2022-12-06T07:52:36.318Z,10.10
2022-12-06T07:53:38.671Z,6.53
2022-12-06T07:54:41.630Z,7.63
2022-12-06T07:55:43.875Z,9.20
2022-12-06T07:56:46.115Z,7.93
2022-12-06T07:57:48.318Z,8.77
2022-12-06T07:58:50.561Z,8.37
2022-12-06T07:59:53.596Z,8.83
2022-12-06T08:00:55.892Z,7.73
2022-12-06T08:01:58.260Z,8.93
2022-12-06T08:03:00.451Z,8.03
2022-12-06T08:04:04.532Z,10.60
2022-12-06T08:05:07.075Z,8.93
2022-12-06T08:06:09.473Z,8.27
2022-12-06T08:07:15.008Z,8.87
2022-12-06T08:08:17.234Z,8.47
2022-12-06T08:09:19.813Z,8.57
2022-12-06T08:10:22.014Z,9.03
2022-12-06T08:11:24.534Z,9.47
2022-12-06T08:12:32.176Z,8.40
2022-12-06T08:13:36.545Z,7.80
2022-12-06T08:14:38.837Z,8.70
2022-12-06T08:15:41.038Z,8.13
2022-12-06T08:16:43.284Z,8.47
2022-12-06T08:17:46.965Z,8.53
2022-12-06T08:18:49.845Z,8.37
2022-12-06T08:19:52.175Z,8.30
2022-12-06T08:20:54.463Z,9.13
2022-12-06T08:21:56.812Z,7.50
2022-12-06T08:22:59.024Z,8.43
2022-12-06T08:24:01.316Z,7.70
2022-12-06T08:25:03.812Z,6.90
2022-12-06T08:26:12.835Z,7.43
2022-12-06T08:27:15.303Z,6.93
2022-12-06T08:28:17.941Z,8.80
2022-12-06T08:29:20.423Z,7.80
2022-12-06T08:30:25.508Z,7.60
2022-12-06T08:31:31.442Z,7.27
2022-12-06T08:32:33.829Z,6.90
2022-12-06T08:33:36.810Z,7.10
2022-12-06T08:34:39.092Z,7.43
2022-12-06T08:35:41.392Z,6.50
2022-12-06T08:36:43.820Z,7.17
2022-12-06T08:37:46.076Z,7.37
2022-12-06T08:38:49.336Z,6.87
2022-12-06T08:39:51.597Z,6.50
2022-12-06T08:40:53.813Z,6.70
2022-12-06T08:42:02.436Z,6.17
2022-12-06T08:43:04.684Z,6.67
2022-12-06T08:44:11.725Z,8.40
2022-12-06T08:45:13.918Z,7.83
2022-12-06T08:46:16.132Z,7.57
2022-12-06T08:47:18.310Z,6.40
2022-12-06T08:48:21.833Z,7.53
2022-12-06T08:49:25.858Z,6.87
2022-12-06T08:50:28.289Z,6.33
2022-12-06T08:51:31.593Z,7.37
2022-12-06T08:52:33.792Z,5.87
2022-12-06T08:53:36.553Z,7.33
2022-12-06T08:54:39.553Z,7.20
2022-12-06T08:55:41.783Z,7.67
2022-12-06T08:56:44.289Z,6.87
2022-12-06T08:57:46.652Z,6.77
2022-12-06T08:58:49.090Z,8.03
2022-12-06T08:59:51.372Z,6.50
2022-12-06T09:00:55.784Z,7.33
2022-12-06T09:01:58.117Z,7.70
2022-12-06T09:03:00.375Z,7.07
2022-12-06T09:04:04.028Z,6.93
2022-12-06T09:05:06.511Z,7.40
2022-12-06T09:06:09.732Z,6.50
2022-12-06T09:07:12.194Z,8.17
2022-12-06T09:08:14.888Z,7.03
2022-12-06T09:09:18.486Z,8.07
2022-12-06T09:10:20.688Z,7.80
2022-12-06T09:11:22.898Z,7.67
2022-12-06T09:12:25.809Z,7.50
2022-12-06T09:13:28.107Z,9.50
2022-12-06T09:14:30.354Z,9.67
2022-12-06T09:15:32.543Z,8.80
2022-12-06T09:16:35.371Z,8.50
2022-12-06T09:17:37.641Z,9.53
2022-12-06T09:18:39.990Z,9.03
2022-12-06T09:19:42.184Z,9.87
2022-12-06T09:20:44.425Z,8.63
2022-12-06T09:21:46.838Z,8.50
2022-12-06T09:22:49.012Z,8.47
2022-12-06T09:23:54.673Z,8.50
2022-12-06T09:24:56.897Z,7.57
2022-12-06T09:25:59.128Z,8.37
2022-12-06T09:27:01.355Z,8.40
2022-12-06T09:28:04.570Z,7.60
2022-12-06T09:29:07.222Z,8.03
2022-12-06T09:30:09.973Z,7.70
2022-12-06T09:31:12.268Z,7.27
2022-12-06T09:32:14.496Z,6.87
2022-12-06T09:33:16.648Z,7.10
2022-12-06T09:34:22.208Z,7.03
2022-12-06T09:35:25.364Z,7.10
2022-12-06T09:36:30.349Z,7.13
2022-12-06T09:37:33.472Z,8.73
2022-12-06T09:38:38.592Z,8.17
2022-12-06T09:39:47.281Z,7.90
2022-12-06T09:41:11.768Z,6.77
2022-12-06T09:42:13.972Z,6.83
2022-12-06T09:43:19.311Z,7.37
2022-12-06T09:44:46.669Z,7.93
2022-12-06T09:46:12.438Z,11.20
2022-12-06T09:47:33.336Z,8.03
2022-12-06T09:49:06.921Z,7.90
2022-12-06T09:50:50.576Z,7.00
2022-12-06T09:52:17.117Z,7.83
2022-12-06T09:53:36.106Z,7.60
2022-12-06T09:55:06.556Z,6.60
2022-12-06T09:56:41.202Z,6.70
2022-12-06T09:58:10.408Z,7.20
2022-12-06T09:59:24.753Z,7.43
2022-12-06T10:00:35.845Z,7.57
2022-12-06T10:02:12.569Z,7.53
2022-12-06T10:03:42.889Z,7.60
2022-12-06T10:04:51.160Z,7.13
2022-12-06T10:06:01.197Z,6.60
2022-12-06T10:07:18.422Z,6.70
2022-12-06T10:08:39.380Z,7.27
2022-12-06T10:09:59.419Z,7.03
2022-12-06T10:11:34.928Z,6.93
2022-12-06T10:13:05.982Z,6.10
2022-12-06T10:14:37.500Z,7.17
2022-12-06T10:16:09.045Z,7.10
2022-12-06T10:17:37.606Z,6.70
2022-12-06T10:18:54.300Z,6.87
2022-12-06T10:20:10.996Z,8.17
2022-12-06T10:21:44.834Z,7.90
2022-12-06T10:23:15.186Z,6.47
2022-12-06T10:24:32.482Z,7.60
2022-12-06T10:25:57.143Z,6.80
2022-12-06T10:27:08.702Z,7.07
2022-12-06T10:28:20.125Z,6.47
2022-12-06T10:29:39.431Z,6.50
2022-12-06T10:30:53.464Z,6.47
2022-12-06T10:32:04.850Z,6.63
2022-12-06T10:33:20.521Z,7.07
2022-12-06T10:34:35.719Z,6.87
2022-12-06T10:35:42.620Z,6.90
2022-12-06T10:37:18.937Z,6.73
2022-12-06T10:38:33.509Z,7.30
2022-12-06T10:39:57.849Z,6.73
2022-12-06T10:41:23.657Z,6.57
2022-12-06T10:42:39.524Z,6.53
2022-12-06T10:44:24.936Z,7.93
2022-12-06T10:45:56.659Z,7.00
2022-12-06T10:47:06.398Z,6.93
2022-12-06T10:48:35.212Z,7.20
2022-12-06T10:49:59.081Z,6.60
2022-12-06T10:51:16.955Z,7.10
2022-12-06T10:52:25.301Z,7.53
2022-12-06T10:53:35.279Z,7.10
2022-12-06T10:54:43.430Z,6.73
2022-12-06T10:55:55.084Z,6.83
2022-12-06T10:57:01.686Z,6.93
2022-12-06T10:58:20.709Z,6.93
2022-12-06T10:59:34.844Z,8.70
2022-12-06T11:01:06.810Z,6.97
2022-12-06T11:02:24.852Z,8.83
2022-12-06T11:03:34.189Z,7.47
2022-12-06T11:04:38.324Z,8.00
2022-12-06T11:05:53.601Z,7.50
2022-12-06T11:07:01.987Z,7.83
2022-12-06T11:08:19.308Z,7.70
2022-12-06T11:09:33.562Z,7.20
2022-12-06T11:10:36.843Z,7.67
2022-12-06T11:11:40.628Z,7.37
2022-12-06T11:12:43.515Z,7.50
2022-12-06T11:13:54.457Z,8.63
2022-12-06T11:15:15.132Z,8.30
2022-12-06T11:16:27.099Z,9.57
2022-12-06T11:17:34.728Z,8.60
2022-12-06T11:18:38.600Z,7.60
2022-12-06T11:19:48.785Z,7.53
2022-12-06T11:20:58.841Z,7.23
2022-12-06T11:22:16.190Z,7.93
2022-12-06T11:23:25.995Z,9.07
2022-12-06T11:24:35.439Z,7.73
2022-12-06T11:26:15.439Z,7.20
2022-12-06T11:27:34.941Z,7.80
2022-12-06T11:28:49.833Z,8.33
2022-12-06T11:29:53.355Z,8.07
2022-12-06T11:30:57.224Z,7.77
2022-12-06T11:32:07.631Z,8.27
2022-12-06T11:33:10.372Z,8.83
2022-12-06T11:34:33.249Z,7.50
2022-12-06T11:35:36.844Z,7.80
2022-12-06T11:36:39.429Z,8.23
2022-12-06T11:37:44.603Z,8.63
2022-12-06T11:38:47.603Z,8.10
2022-12-06T11:39:53.825Z,8.90
2022-12-06T11:40:57.869Z,8.00
2022-12-06T11:42:04.325Z,8.37
2022-12-06T11:43:13.402Z,9.53
2022-12-06T11:44:21.877Z,8.20
2022-12-06T11:45:34.756Z,8.27
2022-12-06T11:46:37.611Z,9.80
2022-12-06T11:47:39.911Z,8.13
2022-12-06T11:48:42.907Z,8.47
2022-12-06T11:49:46.647Z,7.73
2022-12-06T11:50:50.500Z,9.07
2022-12-06T11:51:53.630Z,7.83
2022-12-06T11:53:02.979Z,9.33
2022-12-06T11:54:25.076Z,7.90
2022-12-06T11:55:35.495Z,8.87
2022-12-06T11:56:39.184Z,8.63
2022-12-06T11:57:49.438Z,10.03
2022-12-06T11:59:07.073Z,9.37
2022-12-06T12:00:23.631Z,8.27
2022-12-06T12:01:46.936Z,9.43
2022-12-06T12:02:52.476Z,9.97
2022-12-06T12:03:57.351Z,10.53
2022-12-06T12:05:36.929Z,9.80
2022-12-06T12:06:42.400Z,9.47
2022-12-06T12:07:48.658Z,8.57
2022-12-06T12:09:19.312Z,9.33
2022-12-06T12:10:38.650Z,8.77
2022-12-06T12:11:42.187Z,10.10
2022-12-06T12:13:06.594Z,9.23
2022-12-06T12:14:17.529Z,8.67
2022-12-06T12:15:20.801Z,8.97
2022-12-06T12:16:28.093Z,9.17
2022-12-06T12:17:32.094Z,7.70
2022-12-06T12:18:41.021Z,7.33
2022-12-06T12:19:59.690Z,7.53
2022-12-06T12:21:03.790Z,9.30
2022-12-06T12:22:27.430Z,7.07
2022-12-06T12:23:32.607Z,7.63
2022-12-06T12:26:17.459Z,7.87
2022-12-06T12:27:45.093Z,7.17
2022-12-06T12:29:02.401Z,6.93
2022-12-06T12:30:37.977Z,7.50
2022-12-06T12:31:53.114Z,7.47
2022-12-06T12:33:07.575Z,7.13
2022-12-06T12:34:27.202Z,7.63
2022-12-06T12:35:29.456Z,7.83
2022-12-06T12:36:31.894Z,7.13
2022-12-06T12:37:37.282Z,7.93
2022-12-06T12:38:42.250Z,6.87
2022-12-06T12:40:09.047Z,6.57
2022-12-06T12:41:39.532Z,6.80
2022-12-06T12:42:42.572Z,7.30
2022-12-06T12:44:20.502Z,8.27
2022-12-06T12:45:22.392Z,6.57
2022-12-06T12:46:31.548Z,6.93
2022-12-06T12:47:33.939Z,7.90
2022-12-06T12:48:38.137Z,8.27
2022-12-06T12:49:41.163Z,7.13
2022-12-06T12:50:56.770Z,7.97
2022-12-06T12:52:00.602Z,9.17
2022-12-06T12:53:04.406Z,9.73
2022-12-06T12:54:24.281Z,8.23
2022-12-06T12:55:29.892Z,6.93
2022-12-06T12:56:35.709Z,7.60
2022-12-06T12:57:38.079Z,7.77
2022-12-06T12:58:41.259Z,6.60
2022-12-06T12:59:45.582Z,7.77
2022-12-06T13:00:49.763Z,7.03
2022-12-06T13:02:10.738Z,7.87
2022-12-06T13:03:49.532Z,7.50
2022-12-06T13:04:46.757Z,6.77
2022-12-06T13:05:50.964Z,6.97
2022-12-06T13:07:06.306Z,8.57
2022-12-06T13:08:22.186Z,6.37
2022-12-06T13:09:32.358Z,7.27
2022-12-06T13:10:38.867Z,7.67
2022-12-06T13:11:46.763Z,9.63
2022-12-06T13:13:05.111Z,7.93
2022-12-06T13:14:18.856Z,8.17
2022-12-06T13:15:29.048Z,8.50
2022-12-06T13:16:37.698Z,8.53
2022-12-06T13:17:43.735Z,7.40
2022-12-06T13:18:49.161Z,8.63
2022-12-06T13:19:53.697Z,8.50
2022-12-06T13:20:59.484Z,7.33
2022-12-06T13:22:04.075Z,7.67
2022-12-06T13:23:16.470Z,8.67
2022-12-06T13:24:27.035Z,6.80
2022-12-06T13:25:29.610Z,7.43
2022-12-06T13:26:49.358Z,7.00
2022-12-06T13:28:05.010Z,6.80
2022-12-06T13:29:33.563Z,8.73
2022-12-06T13:30:38.002Z,6.60
2022-12-06T13:31:41.296Z,7.53
2022-12-06T13:32:48.765Z,6.90
2022-12-06T13:33:56.139Z,8.30
2022-12-06T13:35:06.503Z,7.63
2022-12-06T13:36:13.811Z,7.00
2022-12-06T13:37:28.568Z,7.50
2022-12-06T13:38:33.826Z,7.20
2022-12-06T13:39:38.979Z,7.27
2022-12-06T13:41:04.756Z,8.23
2022-12-06T13:42:34.921Z,7.20
2022-12-06T13:43:40.009Z,8.00
2022-12-06T13:44:48.571Z,8.30
2022-12-06T13:46:09.187Z,7.37
2022-12-06T13:47:26.524Z,7.80
2022-12-06T13:48:29.105Z,8.10
2022-12-06T13:49:48.654Z,6.93
2022-12-06T13:50:57.085Z,8.27
2022-12-06T13:51:59.880Z,7.67
2022-12-06T13:53:02.705Z,8.80
2022-12-06T13:54:07.592Z,7.20
2022-12-06T13:55:25.160Z,8.03
2022-12-06T13:56:34.925Z,7.50
2022-12-06T13:57:37.295Z,7.57
2022-12-06T13:58:42.478Z,7.33
2022-12-06T13:59:44.759Z,7.33
2022-12-06T14:00:47.420Z,9.20
2022-12-06T14:01:56.929Z,7.80
2022-12-06T14:03:18.091Z,7.90
2022-12-06T14:08:13.131Z,8.00
2022-12-06T14:09:15.460Z,6.80
2022-12-06T14:10:17.705Z,8.43
2022-12-06T14:11:22.431Z,7.07
2022-12-06T14:12:29.216Z,7.17
2022-12-06T14:13:33.328Z,7.77
2022-12-06T14:14:35.579Z,7.70
2022-12-06T14:15:40.262Z,9.10
2022-12-06T14:16:51.992Z,7.60
2022-12-06T14:18:03.386Z,7.50
2022-12-06T14:19:23.166Z,7.33
2022-12-06T14:20:29.059Z,7.90
2022-12-06T14:21:37.726Z,9.27
2022-12-06T14:22:40.924Z,9.50
2022-12-06T14:23:48.763Z,7.20
2022-12-06T14:25:04.692Z,8.20
2022-12-06T14:26:34.413Z,7.43
2022-12-06T14:27:46.769Z,7.47
2022-12-06T14:28:51.931Z,8.13
2022-12-06T14:30:25.534Z,8.07
2022-12-06T14:31:34.434Z,7.23
2022-12-06T14:32:41.664Z,7.47
2022-12-06T14:33:45.143Z,7.93
2022-12-06T14:34:48.632Z,7.93
2022-12-06T14:35:53.334Z,8.37
2022-12-06T14:36:57.876Z,7.70
2022-12-06T14:38:03.077Z,8.33
2022-12-06T14:39:15.004Z,8.47
2022-12-06T14:40:55.358Z,7.97
2022-12-06T14:42:21.424Z,6.87
2022-12-06T14:43:26.708Z,8.20
2022-12-06T14:45:47.607Z,8.67
2022-12-06T14:46:50.194Z,6.27
2022-12-06T14:47:52.524Z,7.63
2022-12-06T14:49:14.359Z,7.03
2022-12-06T14:50:29.510Z,6.47
2022-12-06T14:51:38.059Z,5.97
2022-12-06T14:53:00.707Z,7.23
2022-12-06T14:54:33.927Z,7.63
2022-12-06T14:55:51.029Z,7.37
2022-12-06T14:56:54.351Z,5.90
2022-12-06T14:58:00.438Z,5.97
2022-12-06T15:00:13.521Z,6.33
2022-12-06T15:01:23.607Z,7.83
2022-12-06T15:02:29.198Z,6.63
2022-12-06T15:03:37.073Z,6.53
2022-12-06T15:04:40.203Z,6.20
2022-12-06T15:05:49.022Z,5.70
2022-12-06T15:06:56.508Z,5.60
2022-12-06T15:07:58.886Z,5.60
2022-12-06T15:09:01.138Z,6.10
2022-12-06T15:10:15.742Z,6.00